sensor_id;sensor_type;location;lat;lon;timestamp;pressure;altitude;pressure_sealevel;temperature;humidity
6134;BME280;3098;42.678;23.364;2022-09-24T00:00:52;95269.56;;;6.58;100.00
6134;BME280;3098;42.678;23.364;2022-09-24T00:03:20;95242.50;;;6.42;100.00
6134;BME280;3098;42.678;23.364;2022-09-24T00:05:48;95239.19;;;6.65;100.00
6134;BME280;3098;42.678;23.364;2022-09-24T00:08:19;95252.03;;;6.77;100.00
6134;BME280;3098;42.678;23.364;2022-09-24T00:10:46;95265.63;;;6.94;100.00
6134;BME280;3098;42.678;23.364;2022-09-24T00:13:16;95262.16;;;7.27;100.00
6134;BME280;3098;42.678;23.364;2022-09-24T00:15:45;95263.66;;;7.38;100.00
6134;BME280;3098;42.678;23.364;2022-09-24T00:18:15;95242.97;;;7.22;100.00
6134;BME280;3098;42.678;23.364;2022-09-24T00:20:42;95231.88;;;6.91;100.00
6134;BME280;3098;42.678;23.364;2022-09-24T00:23:10;95258.09;;;7.11;100.00
6134;BME280;3098;42.678;23.364;2022-09-24T00:25:43;95248.53;;;6.86;100.00
6134;BME280;3098;42.678;23.364;2022-09-24T00:28:28;95257.34;;;7.06;100.00
6134;BME280;3098;42.678;23.364;2022-09-24T00:30:56;95258.53;;;6.89;100.00
6134;BME280;3098;42.678;23.364;2022-09-24T00:33:24;95210.00;;;6.57;100.00
6134;BME280;3098;42.678;23.364;2022-09-24T00:35:52;95236.66;;;6.89;100.00
6134;BME280;3098;42.678;23.364;2022-09-24T00:38:24;95220.94;;;6.74;100.00
6134;BME280;3098;42.678;23.364;2022-09-24T00:40:52;95260.28;;;6.99;100.00
6134;BME280;3098;42.678;23.364;2022-09-24T00:43:25;95228.25;;;6.82;100.00
6134;BME280;3098;42.678;23.364;2022-09-24T00:45:55;95261.44;;;6.88;100.00
6134;BME280;3098;42.678;23.364;2022-09-24T00:48:24;95164.75;;;6.50;100.00
6134;BME280;3098;42.678;23.364;2022-09-24T00:50:51;95239.13;;;7.09;100.00
6134;BME280;3098;42.678;23.364;2022-09-24T00:53:20;95249.59;;;7.19;100.00
6134;BME280;3098;42.678;23.364;2022-09-24T00:55:53;95220.25;;;6.97;100.00
6134;BME280;3098;42.678;23.364;2022-09-24T00:58:22;95235.69;;;7.09;100.00
6134;BME280;3098;42.678;23.364;2022-09-24T01:00:53;95245.34;;;7.23;100.00
6134;BME280;3098;42.678;23.364;2022-09-24T01:03:23;95240.72;;;7.05;100.00
6134;BME280;3098;42.678;23.364;2022-09-24T01:05:52;95213.69;;;6.56;100.00
6134;BME280;3098;42.678;23.364;2022-09-24T01:08:21;95238.75;;;6.53;100.00
6134;BME280;3098;42.678;23.364;2022-09-24T01:11:00;95242.13;;;6.64;100.00
6134;BME280;3098;42.678;23.364;2022-09-24T01:13:41;95224.84;;;6.43;100.00
6134;BME280;3098;42.678;23.364;2022-09-24T01:16:16;95234.28;;;6.54;100.00
6134;BME280;3098;42.678;23.364;2022-09-24T01:18:49;95237.66;;;6.59;100.00
6134;BME280;3098;42.678;23.364;2022-09-24T01:21:29;95216.56;;;6.20;100.00
6134;BME280;3098;42.678;23.364;2022-09-24T01:24:34;95240.66;;;6.43;100.00
6134;BME280;3098;42.678;23.364;2022-09-24T01:27:13;95234.59;;;6.42;100.00
6134;BME280;3098;42.678;23.364;2022-09-24T01:30:03;95241.72;;;6.47;100.00
6134;BME280;3098;42.678;23.364;2022-09-24T01:32:34;95234.31;;;6.49;100.00
6134;BME280;3098;42.678;23.364;2022-09-24T01:35:08;95201.50;;;6.26;100.00
6134;BME280;3098;42.678;23.364;2022-09-24T01:37:43;95208.09;;;6.28;100.00
6134;BME280;3098;42.678;23.364;2022-09-24T01:40:12;95236.84;;;6.59;100.00
6134;BME280;3098;42.678;23.364;2022-09-24T01:42:42;95231.47;;;6.40;100.00
6134;BME280;3098;42.678;23.364;2022-09-24T01:45:13;95153.78;;;5.94;100.00
6134;BME280;3098;42.678;23.364;2022-09-24T01:47:42;95178.19;;;6.09;100.00
6134;BME280;3098;42.678;23.364;2022-09-24T01:50:12;95241.81;;;6.26;100.00
6134;BME280;3098;42.678;23.364;2022-09-24T01:52:42;95242.84;;;6.30;100.00
6134;BME280;3098;42.678;23.364;2022-09-24T01:55:15;95221.75;;;5.87;100.00
6134;BME280;3098;42.678;23.364;2022-09-24T01:57:46;95260.16;;;5.77;100.00
6134;BME280;3098;42.678;23.364;2022-09-24T02:00:17;95244.97;;;5.54;100.00
6134;BME280;3098;42.678;23.364;2022-09-24T02:02:48;95210.50;;;5.56;100.00
6134;BME280;3098;42.678;23.364;2022-09-24T02:05:24;95224.44;;;5.56;100.00
6134;BME280;3098;42.678;23.364;2022-09-24T02:07:59;95054.03;;;4.79;100.00
6134;BME280;3098;42.678;23.364;2022-09-24T02:10:32;95184.28;;;6.00;100.00
6134;BME280;3098;42.678;23.364;2022-09-24T02:13:03;95265.13;;;6.48;100.00
6134;BME280;3098;42.678;23.364;2022-09-24T02:15:34;95174.94;;;5.63;100.00
6134;BME280;3098;42.678;23.364;2022-09-24T02:18:05;95218.03;;;5.82;100.00
6134;BME280;3098;42.678;23.364;2022-09-24T02:20:35;95282.44;;;6.15;100.00
6134;BME280;3098;42.678;23.364;2022-09-24T02:23:05;95252.19;;;6.03;100.00
6134;BME280;3098;42.678;23.364;2022-09-24T02:25:39;95230.97;;;5.69;100.00
6134;BME280;3098;42.678;23.364;2022-09-24T02:28:08;95233.38;;;5.60;100.00
6134;BME280;3098;42.678;23.364;2022-09-24T02:30:40;95288.25;;;6.02;100.00
6134;BME280;3098;42.678;23.364;2022-09-24T02:33:11;95280.94;;;5.79;100.00
6134;BME280;3098;42.678;23.364;2022-09-24T02:35:54;95288.91;;;5.59;100.00
6134;BME280;3098;42.678;23.364;2022-09-24T02:38:22;95276.84;;;5.28;100.00
6134;BME280;3098;42.678;23.364;2022-09-24T02:40:49;95206.13;;;5.06;100.00
6134;BME280;3098;42.678;23.364;2022-09-24T02:43:17;95288.13;;;5.48;100.00
6134;BME280;3098;42.678;23.364;2022-09-24T02:45:46;95194.59;;;4.87;100.00
6134;BME280;3098;42.678;23.364;2022-09-24T02:48:13;95194.34;;;4.63;100.00
6134;BME280;3098;42.678;23.364;2022-09-24T02:50:40;95292.59;;;5.48;100.00
6134;BME280;3098;42.678;23.364;2022-09-24T02:53:07;95301.84;;;5.30;100.00
6134;BME280;3098;42.678;23.364;2022-09-24T02:55:34;95294.44;;;5.52;100.00
6134;BME280;3098;42.678;23.364;2022-09-24T02:58:01;95299.13;;;5.75;100.00
6134;BME280;3098;42.678;23.364;2022-09-24T03:00:28;95275.41;;;5.80;100.00
6134;BME280;3098;42.678;23.364;2022-09-24T03:02:57;95300.16;;;5.79;100.00
6134;BME280;3098;42.678;23.364;2022-09-24T03:05:24;95309.69;;;5.55;100.00
6134;BME280;3098;42.678;23.364;2022-09-24T03:07:51;95246.09;;;5.13;100.00
6134;BME280;3098;42.678;23.364;2022-09-24T03:10:18;95301.53;;;5.57;100.00
6134;BME280;3098;42.678;23.364;2022-09-24T03:12:45;95253.69;;;5.19;100.00
6134;BME280;3098;42.678;23.364;2022-09-24T03:15:12;95266.09;;;5.19;100.00
6134;BME280;3098;42.678;23.364;2022-09-24T03:17:39;95292.38;;;5.39;100.00
6134;BME280;3098;42.678;23.364;2022-09-24T03:20:08;95286.84;;;5.20;100.00
6134;BME280;3098;42.678;23.364;2022-09-24T03:22:35;95297.84;;;5.63;100.00
6134;BME280;3098;42.678;23.364;2022-09-24T03:25:02;95299.94;;;5.76;100.00
6134;BME280;3098;42.678;23.364;2022-09-24T03:27:40;95281.19;;;5.82;100.00
6134;BME280;3098;42.678;23.364;2022-09-24T03:30:08;95231.34;;;5.32;100.00
6134;BME280;3098;42.678;23.364;2022-09-24T03:32:53;95241.91;;;5.02;100.00
6134;BME280;3098;42.678;23.364;2022-09-24T03:35:23;95308.38;;;5.53;100.00
6134;BME280;3098;42.678;23.364;2022-09-24T03:37:50;95300.78;;;5.26;100.00
6134;BME280;3098;42.678;23.364;2022-09-24T03:40:17;95189.88;;;4.63;100.00
6134;BME280;3098;42.678;23.364;2022-09-24T03:42:45;95289.22;;;5.22;100.00
6134;BME280;3098;42.678;23.364;2022-09-24T03:45:12;95244.25;;;4.53;100.00
6134;BME280;3098;42.678;23.364;2022-09-24T03:47:39;95315.00;;;5.05;100.00
6134;BME280;3098;42.678;23.364;2022-09-24T03:50:07;95286.06;;;4.95;100.00
6134;BME280;3098;42.678;23.364;2022-09-24T03:52:37;95243.22;;;4.64;100.00
6134;BME280;3098;42.678;23.364;2022-09-24T03:55:05;95289.75;;;4.74;100.00
6134;BME280;3098;42.678;23.364;2022-09-24T03:57:33;95266.06;;;4.69;100.00
6134;BME280;3098;42.678;23.364;2022-09-24T04:00:00;95248.69;;;4.37;100.00
6134;BME280;3098;42.678;23.364;2022-09-24T04:02:27;95224.47;;;4.00;100.00
6134;BME280;3098;42.678;23.364;2022-09-24T04:04:55;95278.88;;;4.30;100.00
6134;BME280;3098;42.678;23.364;2022-09-24T04:07:22;95320.47;;;4.88;100.00
6134;BME280;3098;42.678;23.364;2022-09-24T04:09:50;95297.91;;;4.82;100.00
6134;BME280;3098;42.678;23.364;2022-09-24T04:12:17;95268.97;;;4.72;100.00
6134;BME280;3098;42.678;23.364;2022-09-24T04:14:44;95323.91;;;5.34;100.00
6134;BME280;3098;42.678;23.364;2022-09-24T04:17:11;95334.44;;;5.39;100.00
6134;BME280;3098;42.678;23.364;2022-09-24T04:19:39;95290.00;;;4.92;100.00
6134;BME280;3098;42.678;23.364;2022-09-24T04:22:06;95329.97;;;5.14;100.00
6134;BME280;3098;42.678;23.364;2022-09-24T04:24:33;95325.50;;;5.15;100.00
6134;BME280;3098;42.678;23.364;2022-09-24T04:27:01;95325.22;;;4.86;100.00
6134;BME280;3098;42.678;23.364;2022-09-24T04:29:29;95342.56;;;4.92;100.00
6134;BME280;3098;42.678;23.364;2022-09-24T04:31:55;95341.53;;;4.93;100.00
6134;BME280;3098;42.678;23.364;2022-09-24T04:34:22;95316.25;;;4.67;100.00
6134;BME280;3098;42.678;23.364;2022-09-24T04:36:50;95343.59;;;4.86;100.00
6134;BME280;3098;42.678;23.364;2022-09-24T04:39:18;95348.31;;;4.74;100.00
6134;BME280;3098;42.678;23.364;2022-09-24T04:41:52;95259.50;;;4.51;100.00
6134;BME280;3098;42.678;23.364;2022-09-24T04:44:20;95348.91;;;5.42;100.00
6134;BME280;3098;42.678;23.364;2022-09-24T04:46:48;95348.59;;;5.68;100.00
6134;BME280;3098;42.678;23.364;2022-09-24T04:49:15;95307.06;;;5.40;100.00
6134;BME280;3098;42.678;23.364;2022-09-24T04:51:42;95342.59;;;5.53;100.00
6134;BME280;3098;42.678;23.364;2022-09-24T04:54:10;95337.34;;;5.33;100.00
6134;BME280;3098;42.678;23.364;2022-09-24T04:56:37;95346.78;;;5.49;100.00
6134;BME280;3098;42.678;23.364;2022-09-24T04:59:04;95318.41;;;5.41;100.00
6134;BME280;3098;42.678;23.364;2022-09-24T05:01:32;95332.56;;;5.70;100.00
6134;BME280;3098;42.678;23.364;2022-09-24T05:04:01;95310.78;;;5.24;100.00
6134;BME280;3098;42.678;23.364;2022-09-24T05:06:29;95274.75;;;4.89;100.00
6134;BME280;3098;42.678;23.364;2022-09-24T05:08:57;95361.25;;;5.51;100.00
6134;BME280;3098;42.678;23.364;2022-09-24T05:11:25;95356.53;;;5.33;100.00
6134;BME280;3098;42.678;23.364;2022-09-24T05:13:53;95308.66;;;5.06;100.00
6134;BME280;3098;42.678;23.364;2022-09-24T05:16:20;95342.06;;;5.15;100.00
6134;BME280;3098;42.678;23.364;2022-09-24T05:18:48;95321.53;;;5.53;100.00
6134;BME280;3098;42.678;23.364;2022-09-24T05:21:16;95347.56;;;5.64;100.00
6134;BME280;3098;42.678;23.364;2022-09-24T05:23:45;95364.38;;;5.73;100.00
6134;BME280;3098;42.678;23.364;2022-09-24T05:26:12;95354.69;;;5.59;100.00
6134;BME280;3098;42.678;23.364;2022-09-24T05:28:56;95306.50;;;5.68;100.00
6134;BME280;3098;42.678;23.364;2022-09-24T05:31:23;95347.66;;;8.13;100.00
6134;BME280;3098;42.678;23.364;2022-09-24T05:33:51;95357.28;;;10.09;98.64
6134;BME280;3098;42.678;23.364;2022-09-24T05:36:19;95339.06;;;12.48;84.95
6134;BME280;3098;42.678;23.364;2022-09-24T05:38:47;95270.47;;;12.28;72.26
6134;BME280;3098;42.678;23.364;2022-09-24T05:41:14;95239.41;;;13.31;70.83
6134;BME280;3098;42.678;23.364;2022-09-24T05:43:41;95177.66;;;14.63;60.36
6134;BME280;3098;42.678;23.364;2022-09-24T05:46:08;95380.97;;;15.44;58.17
6134;BME280;3098;42.678;23.364;2022-09-24T05:48:35;95382.41;;;14.63;62.54
6134;BME280;3098;42.678;23.364;2022-09-24T05:51:04;95371.75;;;16.28;58.20
6134;BME280;3098;42.678;23.364;2022-09-24T05:53:31;95371.59;;;16.82;55.73
6134;BME280;3098;42.678;23.364;2022-09-24T05:55:59;95381.22;;;18.73;51.17
6134;BME280;3098;42.678;23.364;2022-09-24T05:58:27;95374.25;;;19.73;43.17
6134;BME280;3098;42.678;23.364;2022-09-24T06:00:53;95376.25;;;19.07;43.56
6134;BME280;3098;42.678;23.364;2022-09-24T06:03:21;95370.53;;;18.02;46.27
6134;BME280;3098;42.678;23.364;2022-09-24T06:05:49;95377.53;;;20.24;41.24
6134;BME280;3098;42.678;23.364;2022-09-24T06:08:19;95334.91;;;20.26;39.55
6134;BME280;3098;42.678;23.364;2022-09-24T06:10:46;95376.63;;;21.56;37.07
6134;BME280;3098;42.678;23.364;2022-09-24T06:13:16;95333.28;;;18.75;40.72
6134;BME280;3098;42.678;23.364;2022-09-24T06:15:45;95351.41;;;19.64;40.21
6134;BME280;3098;42.678;23.364;2022-09-24T06:18:12;95242.47;;;18.84;39.12
6134;BME280;3098;42.678;23.364;2022-09-24T06:20:39;95361.38;;;19.82;39.86
6134;BME280;3098;42.678;23.364;2022-09-24T06:23:06;95389.19;;;18.54;42.05
6134;BME280;3098;42.678;23.364;2022-09-24T06:25:34;95376.44;;;17.40;45.19
6134;BME280;3098;42.678;23.364;2022-09-24T06:28:03;95348.53;;;19.22;41.42
6134;BME280;3098;42.678;23.364;2022-09-24T06:30:33;95386.91;;;21.21;37.96
6134;BME280;3098;42.678;23.364;2022-09-24T06:33:01;95391.84;;;21.15;37.58
6134;BME280;3098;42.678;23.364;2022-09-24T06:35:30;95328.47;;;23.20;33.05
6134;BME280;3098;42.678;23.364;2022-09-24T06:37:57;95389.41;;;23.00;33.18
6134;BME280;3098;42.678;23.364;2022-09-24T06:40:24;95403.16;;;21.51;35.87
6134;BME280;3098;42.678;23.364;2022-09-24T06:42:53;95405.66;;;20.88;37.02
6134;BME280;3098;42.678;23.364;2022-09-24T06:45:20;95299.63;;;17.20;41.65
6134;BME280;3098;42.678;23.364;2022-09-24T06:47:51;95391.81;;;18.23;43.30
6134;BME280;3098;42.678;23.364;2022-09-24T06:50:18;95393.22;;;19.11;40.92
6134;BME280;3098;42.678;23.364;2022-09-24T06:52:46;95399.06;;;19.82;39.94
6134;BME280;3098;42.678;23.364;2022-09-24T06:55:13;95332.97;;;17.35;43.30
6134;BME280;3098;42.678;23.364;2022-09-24T06:57:41;95387.78;;;18.45;43.09
6134;BME280;3098;42.678;23.364;2022-09-24T07:00:12;95395.88;;;19.77;40.38
6134;BME280;3098;42.678;23.364;2022-09-24T07:02:39;95400.59;;;20.86;38.51
6134;BME280;3098;42.678;23.364;2022-09-24T07:05:07;95384.00;;;20.84;37.78
6134;BME280;3098;42.678;23.364;2022-09-24T07:07:35;95377.47;;;18.47;41.69
6134;BME280;3098;42.678;23.364;2022-09-24T07:10:04;95292.63;;;18.46;41.59
6134;BME280;3098;42.678;23.364;2022-09-24T07:12:33;95403.06;;;17.09;45.71
6134;BME280;3098;42.678;23.364;2022-09-24T07:15:00;95399.44;;;15.99;49.64
6134;BME280;3098;42.678;23.364;2022-09-24T07:17:29;95369.28;;;17.56;46.56
6134;BME280;3098;42.678;23.364;2022-09-24T07:19:56;95408.31;;;20.04;40.17
6134;BME280;3098;42.678;23.364;2022-09-24T07:22:23;95399.22;;;19.89;39.52
6134;BME280;3098;42.678;23.364;2022-09-24T07:24:50;95391.78;;;18.82;41.77
6134;BME280;3098;42.678;23.364;2022-09-24T07:27:17;95384.31;;;18.91;42.65
6134;BME280;3098;42.678;23.364;2022-09-24T07:29:45;95344.06;;;19.64;39.77
6134;BME280;3098;42.678;23.364;2022-09-24T07:32:14;95385.44;;;20.55;38.77
6134;BME280;3098;42.678;23.364;2022-09-24T07:34:44;95384.56;;;20.48;39.09
6134;BME280;3098;42.678;23.364;2022-09-24T07:37:10;95339.56;;;20.29;38.34
6134;BME280;3098;42.678;23.364;2022-09-24T07:39:37;95383.75;;;20.93;37.46
6134;BME280;3098;42.678;23.364;2022-09-24T07:42:04;95389.53;;;20.91;36.64
6134;BME280;3098;42.678;23.364;2022-09-24T07:44:32;95304.31;;;19.96;38.40
6134;BME280;3098;42.678;23.364;2022-09-24T07:47:01;95389.06;;;21.08;37.50
6134;BME280;3098;42.678;23.364;2022-09-24T07:49:28;95388.00;;;19.49;39.50
6134;BME280;3098;42.678;23.364;2022-09-24T07:51:58;95330.78;;;19.17;39.78
6134;BME280;3098;42.678;23.364;2022-09-24T07:54:26;95386.84;;;20.69;38.29
6134;BME280;3098;42.678;23.364;2022-09-24T07:56:54;95362.28;;;20.74;37.28
6134;BME280;3098;42.678;23.364;2022-09-24T07:59:21;95307.69;;;21.33;36.13
6134;BME280;3098;42.678;23.364;2022-09-24T08:01:49;95329.50;;;23.05;33.21
6134;BME280;3098;42.678;23.364;2022-09-24T08:04:16;95375.53;;;20.59;36.83
6134;BME280;3098;42.678;23.364;2022-09-24T08:06:43;95351.75;;;21.14;36.87
6134;BME280;3098;42.678;23.364;2022-09-24T08:09:14;95372.63;;;22.43;34.93
6134;BME280;3098;42.678;23.364;2022-09-24T08:11:41;95378.63;;;19.27;39.06
6134;BME280;3098;42.678;23.364;2022-09-24T08:14:08;95376.16;;;19.54;39.93
6134;BME280;3098;42.678;23.364;2022-09-24T08:16:36;95375.72;;;21.75;36.12
6134;BME280;3098;42.678;23.364;2022-09-24T08:19:05;95303.47;;;22.35;34.23
6134;BME280;3098;42.678;23.364;2022-09-24T08:21:38;95377.13;;;18.95;39.49
6134;BME280;3098;42.678;23.364;2022-09-24T08:24:05;95349.63;;;19.36;39.60
6134;BME280;3098;42.678;23.364;2022-09-24T08:26:34;95364.81;;;21.12;36.61
6134;BME280;3098;42.678;23.364;2022-09-24T08:29:01;95305.19;;;20.23;36.85
6134;BME280;3098;42.678;23.364;2022-09-24T08:31:28;95242.25;;;19.09;39.78
6134;BME280;3098;42.678;23.364;2022-09-24T08:33:56;95368.03;;;21.47;37.02
6134;BME280;3098;42.678;23.364;2022-09-24T08:36:23;95351.50;;;22.15;34.74
6134;BME280;3098;42.678;23.364;2022-09-24T08:38:52;95307.16;;;23.11;33.81
6134;BME280;3098;42.678;23.364;2022-09-24T08:41:31;95336.50;;;21.25;35.21
6134;BME280;3098;42.678;23.364;2022-09-24T08:44:11;95363.78;;;18.99;39.81
6134;BME280;3098;42.678;23.364;2022-09-24T08:46:41;95370.56;;;19.62;39.35
6134;BME280;3098;42.678;23.364;2022-09-24T08:49:30;95338.28;;;21.14;36.08
6134;BME280;3098;42.678;23.364;2022-09-24T08:52:18;95359.72;;;21.07;36.62
6134;BME280;3098;42.678;23.364;2022-09-24T08:54:52;95358.41;;;18.99;39.95
6134;BME280;3098;42.678;23.364;2022-09-24T08:57:21;95365.13;;;19.24;40.06
6134;BME280;3098;42.678;23.364;2022-09-24T08:59:51;95355.84;;;19.94;39.17
6134;BME280;3098;42.678;23.364;2022-09-24T09:02:27;95204.28;;;20.95;35.60
6134;BME280;3098;42.678;23.364;2022-09-24T09:05:08;95325.16;;;22.46;33.90
6134;BME280;3098;42.678;23.364;2022-09-24T09:07:47;95294.13;;;22.69;33.35
6134;BME280;3098;42.678;23.364;2022-09-24T09:10:20;95345.50;;;23.99;31.95
6134;BME280;3098;42.678;23.364;2022-09-24T09:12:54;95336.38;;;24.71;30.43
6134;BME280;3098;42.678;23.364;2022-09-24T09:15:27;95308.81;;;25.29;29.48
6134;BME280;3098;42.678;23.364;2022-09-24T09:17:58;95342.47;;;24.19;31.00
6134;BME280;3098;42.678;23.364;2022-09-24T09:20:30;95310.88;;;22.89;32.97
6134;BME280;3098;42.678;23.364;2022-09-24T09:23:02;95334.53;;;22.55;34.57
6134;BME280;3098;42.678;23.364;2022-09-24T09:25:34;95217.97;;;20.83;34.60
6134;BME280;3098;42.678;23.364;2022-09-24T09:28:09;95321.81;;;21.82;35.75
6134;BME280;3098;42.678;23.364;2022-09-24T09:30:47;95333.19;;;23.37;33.29
6134;BME280;3098;42.678;23.364;2022-09-24T09:33:30;95183.91;;;23.28;31.15
6134;BME280;3098;42.678;23.364;2022-09-24T09:36:14;95322.22;;;23.81;32.14
6134;BME280;3098;42.678;23.364;2022-09-24T09:38:51;95319.06;;;23.00;33.75
6134;BME280;3098;42.678;23.364;2022-09-24T09:41:24;95290.84;;;20.87;34.84
6134;BME280;3098;42.678;23.364;2022-09-24T09:43:58;95314.16;;;20.07;37.43
6134;BME280;3098;42.678;23.364;2022-09-24T09:46:32;95309.47;;;22.18;33.84
6134;BME280;3098;42.678;23.364;2022-09-24T09:49:04;95232.72;;;22.73;32.56
6134;BME280;3098;42.678;23.364;2022-09-24T09:51:37;95294.25;;;23.52;31.48
6134;BME280;3098;42.678;23.364;2022-09-24T09:54:05;95240.22;;;21.66;34.29
6134;BME280;3098;42.678;23.364;2022-09-24T09:56:35;95300.38;;;22.37;33.53
6134;BME280;3098;42.678;23.364;2022-09-24T09:59:16;95279.53;;;21.97;33.81
6134;BME280;3098;42.678;23.364;2022-09-24T10:01:46;95277.94;;;23.41;32.32
6134;BME280;3098;42.678;23.364;2022-09-24T10:04:29;95248.44;;;23.22;31.43
6134;BME280;3098;42.678;23.364;2022-09-24T10:07:07;95213.13;;;22.36;31.80
6134;BME280;3098;42.678;23.364;2022-09-24T10:09:35;95275.38;;;22.98;32.42
6134;BME280;3098;42.678;23.364;2022-09-24T10:12:14;95280.00;;;23.66;31.35
6134;BME280;3098;42.678;23.364;2022-09-24T10:14:54;95271.09;;;23.69;31.04
6134;BME280;3098;42.678;23.364;2022-09-24T10:17:27;95265.03;;;24.78;28.85
6134;BME280;3098;42.678;23.364;2022-09-24T10:19:55;95264.28;;;24.14;30.30
6134;BME280;3098;42.678;23.364;2022-09-24T10:22:24;95224.38;;;24.03;29.51
6134;BME280;3098;42.678;23.364;2022-09-24T10:24:53;95241.06;;;24.83;28.73
6134;BME280;3098;42.678;23.364;2022-09-24T10:27:28;95231.66;;;25.20;28.80
6134;BME280;3098;42.678;23.364;2022-09-24T10:29:57;95260.81;;;24.31;29.85
6134;BME280;3098;42.678;23.364;2022-09-24T10:32:43;95068.13;;;20.79;31.93
6134;BME280;3098;42.678;23.364;2022-09-24T10:35:22;95201.25;;;20.71;34.14
6134;BME280;3098;42.678;23.364;2022-09-24T10:37:50;95260.44;;;22.19;33.21
6134;BME280;3098;42.678;23.364;2022-09-24T10:40:21;95254.69;;;23.33;31.67
6134;BME280;3098;42.678;23.364;2022-09-24T10:42:57;95183.31;;;24.05;29.14
6134;BME280;3098;42.678;23.364;2022-09-24T10:48:26;95205.66;;;23.38;30.68
6134;BME280;3098;42.678;23.364;2022-09-24T10:51:00;95237.78;;;23.47;30.99
6134;BME280;3098;42.678;23.364;2022-09-24T10:53:42;95180.34;;;22.41;29.53
6134;BME280;3098;42.678;23.364;2022-09-24T10:56:20;95241.38;;;23.00;30.06
6134;BME280;3098;42.678;23.364;2022-09-24T10:59:13;95208.41;;;22.26;30.72
6134;BME280;3098;42.678;23.364;2022-09-24T11:01:50;95177.91;;;22.25;29.04
6134;BME280;3098;42.678;23.364;2022-09-24T11:04:39;95223.50;;;22.85;29.64
6134;BME280;3098;42.678;23.364;2022-09-24T11:07:28;95229.66;;;23.51;26.65
6134;BME280;3098;42.678;23.364;2022-09-24T11:10:07;95214.53;;;23.42;26.85
6134;BME280;3098;42.678;23.364;2022-09-24T11:12:44;95173.47;;;22.54;27.06
6134;BME280;3098;42.678;23.364;2022-09-24T11:15:25;95232.56;;;23.17;27.16
6134;BME280;3098;42.678;23.364;2022-09-24T11:18:07;95207.06;;;22.06;28.16
6134;BME280;3098;42.678;23.364;2022-09-24T11:20:38;95158.44;;;21.25;28.41
6134;BME280;3098;42.678;23.364;2022-09-24T11:23:18;95191.22;;;22.01;28.63
6134;BME280;3098;42.678;23.364;2022-09-24T11:25:56;95216.09;;;22.71;27.98
6134;BME280;3098;42.678;23.364;2022-09-24T11:28:52;95213.41;;;23.54;27.16
6134;BME280;3098;42.678;23.364;2022-09-24T11:31:31;95088.88;;;22.54;27.51
6134;BME280;3098;42.678;23.364;2022-09-24T11:34:14;95203.34;;;23.44;27.04
6134;BME280;3098;42.678;23.364;2022-09-24T11:37:01;95199.56;;;23.91;26.80
6134;BME280;3098;42.678;23.364;2022-09-24T11:39:46;95150.19;;;23.08;26.40
6134;BME280;3098;42.678;23.364;2022-09-24T11:42:23;95198.84;;;24.26;26.34
6134;BME280;3098;42.678;23.364;2022-09-24T11:48:27;95198.06;;;22.97;26.47
6134;BME280;3098;42.678;23.364;2022-09-24T11:51:07;95195.78;;;23.02;27.33
6134;BME280;3098;42.678;23.364;2022-09-24T11:53:44;95189.47;;;23.74;26.07
6134;BME280;3098;42.678;23.364;2022-09-24T11:56:19;95168.03;;;23.23;26.34
6134;BME280;3098;42.678;23.364;2022-09-24T11:58:50;95167.09;;;22.80;26.52
6134;BME280;3098;42.678;23.364;2022-09-24T12:01:25;95142.34;;;22.78;26.74
6134;BME280;3098;42.678;23.364;2022-09-24T12:03:58;95183.53;;;23.36;26.21
6134;BME280;3098;42.678;23.364;2022-09-24T12:06:31;95175.59;;;22.82;26.67
6134;BME280;3098;42.678;23.364;2022-09-24T12:09:12;95179.59;;;23.09;26.30
6134;BME280;3098;42.678;23.364;2022-09-24T12:11:44;95156.25;;;22.76;26.43
6134;BME280;3098;42.678;23.364;2022-09-24T12:14:17;95172.56;;;22.32;27.25
6134;BME280;3098;42.678;23.364;2022-09-24T12:16:48;95130.56;;;21.91;27.37
6134;BME280;3098;42.678;23.364;2022-09-24T12:19:20;95153.66;;;21.45;29.00
6134;BME280;3098;42.678;23.364;2022-09-24T12:21:51;95164.88;;;21.50;28.73
6134;BME280;3098;42.678;23.364;2022-09-24T12:24:27;95165.66;;;21.17;28.79
6134;BME280;3098;42.678;23.364;2022-09-24T12:26:57;95181.53;;;20.93;29.74
6134;BME280;3098;42.678;23.364;2022-09-24T12:29:36;95168.88;;;20.67;30.36
6134;BME280;3098;42.678;23.364;2022-09-24T12:32:29;95169.16;;;20.88;30.32
6134;BME280;3098;42.678;23.364;2022-09-24T12:35:29;95120.47;;;20.22;30.60
6134;BME280;3098;42.678;23.364;2022-09-24T12:38:00;95106.19;;;20.18;30.45
6134;BME280;3098;42.678;23.364;2022-09-24T12:40:48;95165.84;;;20.72;29.83
6134;BME280;3098;42.678;23.364;2022-09-24T12:43:21;95163.31;;;20.83;29.91
6134;BME280;3098;42.678;23.364;2022-09-24T12:45:55;95058.34;;;20.34;29.74
6134;BME280;3098;42.678;23.364;2022-09-24T12:48:23;95127.19;;;20.91;30.46
6134;BME280;3098;42.678;23.364;2022-09-24T12:50:56;95167.31;;;20.96;29.86
6134;BME280;3098;42.678;23.364;2022-09-24T12:53:33;95163.06;;;20.95;29.34
6134;BME280;3098;42.678;23.364;2022-09-24T12:56:04;95146.84;;;20.91;29.60
6134;BME280;3098;42.678;23.364;2022-09-24T12:58:36;95153.56;;;20.75;29.72
6134;BME280;3098;42.678;23.364;2022-09-24T13:01:07;95165.94;;;20.79;30.01
6134;BME280;3098;42.678;23.364;2022-09-24T13:03:36;95148.72;;;20.87;29.93
6134;BME280;3098;42.678;23.364;2022-09-24T13:06:19;95131.88;;;20.97;29.96
6134;BME280;3098;42.678;23.364;2022-09-24T13:08:47;95145.28;;;20.90;30.02
6134;BME280;3098;42.678;23.364;2022-09-24T13:11:28;95103.63;;;20.25;29.96
6134;BME280;3098;42.678;23.364;2022-09-24T13:14:03;95146.69;;;20.77;30.10
6134;BME280;3098;42.678;23.364;2022-09-24T13:16:37;95141.47;;;20.95;30.11
6134;BME280;3098;42.678;23.364;2022-09-24T13:19:08;95132.25;;;20.96;29.79
6134;BME280;3098;42.678;23.364;2022-09-24T13:21:52;95137.28;;;20.97;30.14
6134;BME280;3098;42.678;23.364;2022-09-24T13:24:26;95143.03;;;20.96;30.22
6134;BME280;3098;42.678;23.364;2022-09-24T13:27:07;95118.66;;;20.85;29.42
6134;BME280;3098;42.678;23.364;2022-09-24T13:29:37;95120.25;;;20.90;30.12
6134;BME280;3098;42.678;23.364;2022-09-24T13:32:07;95066.59;;;20.81;29.70
6134;BME280;3098;42.678;23.364;2022-09-24T13:34:43;95129.56;;;21.26;29.81
6134;BME280;3098;42.678;23.364;2022-09-24T13:37:16;95118.63;;;21.15;29.68
6134;BME280;3098;42.678;23.364;2022-09-24T13:39:51;95058.94;;;20.50;29.82